Fangst — LK6971 — position and weather

sailwx.info

Track history (hours):
 
Tides and Currents Weather Stations Pressure Air Temp Water Temp Dewpoint Dewpoint Depression Visibility Wind Speed Wind Dir Waves Ship Positions

Oceanographic research ship Fangst (Norway)

Detailed information on ship capabilities available from University of Delaware's Ocean Information Center and ARCUS's ALIAS (Arctic Logistics Information and Support) project.

Last reported at 2017-Apr-24 15:46 UTC. Time now 2017-Apr-29 05:53 UTC.
Position N 62°17' E 005°32'.

Length 14 m; draft 2.5 m.

Type: Fishing. MMSI: 257076840.

Date/timePositionNaut miles runAvg speedWind from/ knotsBaromVisibWave heightAir tempDewpointWater temp
2017-Apr-24 15:46N 62°17' E 005°32'1 3.8
2017-Apr-24 15:25N 62°17' E 005°29'1 3.5
2017-Apr-24 15:01N 62°18' E 005°32'1 1.1
2017-Apr-24 14:30N 62°18' E 005°33'2 1.5
2017-Apr-24 13:27N 62°20' E 005°31'1 1.6
2017-Apr-24 13:00N 62°19' E 005°30'1 2.3
2017-Apr-24 12:30N 62°20' E 005°33'1 2.4
2017-Apr-24 12:00N 62°20' E 005°35'3 6.0
2017-Apr-24 11:30N 62°22' E 005°40'5 7.3
2017-Apr-24 10:49N 62°24' E 005°49'3 7.7
2017-Apr-24 10:28N 62°26' E 005°54'19 1.2
2017-Apr-23 19:06N 62°38' E 006°26'2 2.4
2017-Apr-23 18:24N 62°39' E 006°29'6 4.9
2017-Apr-23 17:10N 62°42' E 006°39'1 0.2
2017-Apr-23 09:53N 62°42' E 006°42'  
2017-Apr-20 08:30N 62°42' E 006°40'26 1.8
2017-Apr-19 17:53N 62°26' E 005°55'3 7.6
2017-Apr-19 17:30N 62°24' E 005°50'1 2.2
2017-Apr-19 17:00N 62°23' E 005°49'1 2.7
2017-Apr-19 16:30N 62°23' E 005°46'1 2.8
2017-Apr-19 15:59N 62°23' E 005°43'2 3.7
2017-Apr-19 15:30N 62°22' E 005°46'2 4.9
2017-Apr-19 15:00N 62°20' E 005°50'1 2.5
2017-Apr-19 14:30N 62°20' E 005°48'2 2.1
2017-Apr-19 13:30N 62°18' E 005°46'2 1.0
2017-Apr-19 11:21N 62°16' E 005°49'1 2.9
2017-Apr-19 10:59N 62°17' E 005°51'1 2.8
2017-Apr-19 10:30N 62°18' E 005°50'2 3.3
2017-Apr-19 10:00N 62°18' E 005°46'0 1.0
2017-Apr-19 09:31N 62°19' E 005°46'1 2.1
2017-Apr-19 09:01N 62°19' E 005°43'2 3.0
2017-Apr-19 08:30N 62°19' E 005°40'1 2.6
2017-Apr-19 08:00N 62°18' E 005°42'1 2.4
2017-Apr-19 07:30N 62°18' E 005°40'3 5.4
2017-Apr-19 07:00N 62°20' E 005°35'1 3.0
2017-Apr-19 06:30N 62°21' E 005°38'0 0.7
2017-Apr-19 06:00N 62°21' E 005°38'0 0.0
2017-Apr-19 05:30N 62°21' E 005°38'0 0.0
2017-Apr-19 05:00N 62°21' E 005°38'0 0.0
2017-Apr-19 04:30N 62°21' E 005°38'0 0.0
2017-Apr-19 04:00N 62°21' E 005°38'0 0.0
2017-Apr-19 03:30N 62°21' E 005°38'0 0.0
2017-Apr-19 03:00N 62°21' E 005°38'0 0.0
2017-Apr-19 02:30N 62°21' E 005°38'0 0.0
2017-Apr-19 02:00N 62°21' E 005°38'0 0.0
2017-Apr-19 01:30N 62°21' E 005°38'0 0.0
2017-Apr-19 01:00N 62°21' E 005°38'0 0.0
2017-Apr-19 00:30N 62°21' E 005°38'0 0.0
2017-Apr-19 00:00N 62°21' E 005°38'0 0.0
2017-Apr-18 23:30N 62°21' E 005°38'0 0.0
2017-Apr-18 23:00N 62°21' E 005°38'0 0.0
2017-Apr-18 22:30N 62°21' E 005°38'0 0.0
2017-Apr-18 22:00N 62°21' E 005°38'0 0.0
2017-Apr-18 21:30N 62°21' E 005°38'0 0.0
2017-Apr-18 21:00N 62°21' E 005°38'0 0.0
2017-Apr-18 20:30N 62°21' E 005°38'0 0.0
2017-Apr-18 19:59N 62°21' E 005°38'5 3.1
2017-Apr-18 18:19N 62°25' E 005°42'4 7.1
2017-Apr-18 17:48N 62°27' E 005°49'3 7.5
2017-Apr-18 17:26N 62°28' E 005°55'13 2.9
2017-Apr-18 12:49N 62°40' E 006°06'3 6.8
2017-Apr-18 12:23N 62°42' E 006°11'4 6.6
2017-Apr-18 11:47N 62°43' E 006°19'2 6.1
2017-Apr-18 11:30N 62°44' E 006°22'1 2.1
2017-Apr-18 11:00N 62°45' E 006°20'13 4.2
2017-Apr-18 07:48N 62°53' E 006°44'2 7.0
2017-Apr-18 07:30N 62°51' E 006°47'2 3.4
2017-Apr-18 07:00N 62°51' E 006°50'4 6.3
2017-Apr-18 06:27N 62°51' E 006°58'3 0.2
2017-Apr-17 16:45N 62°49' E 006°56'2 6.3
2017-Apr-17 16:27N 62°47' E 006°56'4 6.8
2017-Apr-17 15:54N 62°45' E 006°48'5 5.6
2017-Apr-17 15:00N 62°42' E 006°39'  
Track history (hours):
 
Tides and Currents Weather Stations Pressure Air Temp Water Temp Dewpoint Dewpoint Depression Visibility Wind Speed Wind Dir Waves Ship Positions

Oceanographic research ship Fangst (Norway)

Detailed information on ship capabilities available from University of Delaware's Ocean Information Center and ARCUS's ALIAS (Arctic Logistics Information and Support) project.

Last reported at 2017-Apr-24 15:46 UTC. Time now 2017-Apr-29 05:53 UTC.
Position N 62°17' E 005°32'.

Length 14 m; draft 2.5 m.

Type: Fishing. MMSI: 257076840.

Date/timePositionNaut miles runAvg speedWind from/ knotsBaromVisibWave heightAir tempDewpointWater temp
2017-Apr-24 15:46N 62°17' E 005°32'1 3.8
2017-Apr-24 15:25N 62°17' E 005°29'1 3.5
2017-Apr-24 15:01N 62°18' E 005°32'1 1.1
2017-Apr-24 14:30N 62°18' E 005°33'2 1.5
2017-Apr-24 13:27N 62°20' E 005°31'1 1.6
2017-Apr-24 13:00N 62°19' E 005°30'1 2.3
2017-Apr-24 12:30N 62°20' E 005°33'1 2.4
2017-Apr-24 12:00N 62°20' E 005°35'3 6.0
2017-Apr-24 11:30N 62°22' E 005°40'5 7.3
2017-Apr-24 10:49N 62°24' E 005°49'3 7.7
2017-Apr-24 10:28N 62°26' E 005°54'19 1.2
2017-Apr-23 19:06N 62°38' E 006°26'2 2.4
2017-Apr-23 18:24N 62°39' E 006°29'6 4.9
2017-Apr-23 17:10N 62°42' E 006°39'1 0.2
2017-Apr-23 09:53N 62°42' E 006°42'  
2017-Apr-20 08:30N 62°42' E 006°40'26 1.8
2017-Apr-19 17:53N 62°26' E 005°55'3 7.6
2017-Apr-19 17:30N 62°24' E 005°50'1 2.2
2017-Apr-19 17:00N 62°23' E 005°49'1 2.7
2017-Apr-19 16:30N 62°23' E 005°46'1 2.8
2017-Apr-19 15:59N 62°23' E 005°43'2 3.7
2017-Apr-19 15:30N 62°22' E 005°46'2 4.9
2017-Apr-19 15:00N 62°20' E 005°50'1 2.5
2017-Apr-19 14:30N 62°20' E 005°48'2 2.1
2017-Apr-19 13:30N 62°18' E 005°46'2 1.0
2017-Apr-19 11:21N 62°16' E 005°49'1 2.9
2017-Apr-19 10:59N 62°17' E 005°51'1 2.8
2017-Apr-19 10:30N 62°18' E 005°50'2 3.3
2017-Apr-19 10:00N 62°18' E 005°46'0 1.0
2017-Apr-19 09:31N 62°19' E 005°46'1 2.1
2017-Apr-19 09:01N 62°19' E 005°43'2 3.0
2017-Apr-19 08:30N 62°19' E 005°40'1 2.6
2017-Apr-19 08:00N 62°18' E 005°42'1 2.4
2017-Apr-19 07:30N 62°18' E 005°40'3 5.4
2017-Apr-19 07:00N 62°20' E 005°35'1 3.0
2017-Apr-19 06:30N 62°21' E 005°38'0 0.7
2017-Apr-19 06:00N 62°21' E 005°38'0 0.0
2017-Apr-19 05:30N 62°21' E 005°38'0 0.0
2017-Apr-19 05:00N 62°21' E 005°38'0 0.0
2017-Apr-19 04:30N 62°21' E 005°38'0 0.0
2017-Apr-19 04:00N 62°21' E 005°38'0 0.0
2017-Apr-19 03:30N 62°21' E 005°38'0 0.0
2017-Apr-19 03:00N 62°21' E 005°38'0 0.0
2017-Apr-19 02:30N 62°21' E 005°38'0 0.0
2017-Apr-19 02:00N 62°21' E 005°38'0 0.0
2017-Apr-19 01:30N 62°21' E 005°38'0 0.0
2017-Apr-19 01:00N 62°21' E 005°38'0 0.0
2017-Apr-19 00:30N 62°21' E 005°38'0 0.0
2017-Apr-19 00:00N 62°21' E 005°38'0 0.0
2017-Apr-18 23:30N 62°21' E 005°38'0 0.0
2017-Apr-18 23:00N 62°21' E 005°38'0 0.0
2017-Apr-18 22:30N 62°21' E 005°38'0 0.0
2017-Apr-18 22:00N 62°21' E 005°38'0 0.0
2017-Apr-18 21:30N 62°21' E 005°38'0 0.0
2017-Apr-18 21:00N 62°21' E 005°38'0 0.0
2017-Apr-18 20:30N 62°21' E 005°38'0 0.0
2017-Apr-18 19:59N 62°21' E 005°38'5 3.1
2017-Apr-18 18:19N 62°25' E 005°42'4 7.1
2017-Apr-18 17:48N 62°27' E 005°49'3 7.5
2017-Apr-18 17:26N 62°28' E 005°55'13 2.9
2017-Apr-18 12:49N 62°40' E 006°06'3 6.8
2017-Apr-18 12:23N 62°42' E 006°11'4 6.6
2017-Apr-18 11:47N 62°43' E 006°19'2 6.1
2017-Apr-18 11:30N 62°44' E 006°22'1 2.1
2017-Apr-18 11:00N 62°45' E 006°20'13 4.2
2017-Apr-18 07:48N 62°53' E 006°44'2 7.0
2017-Apr-18 07:30N 62°51' E 006°47'2 3.4
2017-Apr-18 07:00N 62°51' E 006°50'4 6.3
2017-Apr-18 06:27N 62°51' E 006°58'3 0.2
2017-Apr-17 16:45N 62°49' E 006°56'2 6.3
2017-Apr-17 16:27N 62°47' E 006°56'4 6.8
2017-Apr-17 15:54N 62°45' E 006°48'5 5.6
2017-Apr-17 15:00N 62°42' E 006°39'  

Dump ship's entire track history